createdAt,value
2019-01-21T00:00:50.086Z,2.73
2019-01-21T00:03:17.390Z,3.07
2019-01-21T00:05:44.658Z,2.97
2019-01-21T00:08:11.824Z,2.80
2019-01-21T00:10:39.054Z,2.73
2019-01-21T00:13:06.276Z,3.00
2019-01-21T00:15:33.525Z,2.50
2019-01-21T00:18:00.766Z,2.87
2019-01-21T00:20:28.009Z,2.80
2019-01-21T00:22:55.200Z,2.63
2019-01-21T00:25:22.371Z,2.70
2019-01-21T00:27:49.676Z,2.40
2019-01-21T00:30:16.847Z,3.47
2019-01-21T00:32:44.041Z,3.43
2019-01-21T00:35:11.362Z,3.00
2019-01-21T00:37:38.515Z,2.70
2019-01-21T00:40:06.076Z,3.30
2019-01-21T00:42:33.282Z,3.03
2019-01-21T00:45:00.487Z,2.80
2019-01-21T00:47:30.044Z,3.40
2019-01-21T00:49:57.899Z,3.30
2019-01-21T00:52:25.213Z,3.00
2019-01-21T00:54:52.863Z,2.70
2019-01-21T00:57:20.068Z,3.20
2019-01-21T00:59:47.257Z,3.00
2019-01-21T01:02:15.043Z,2.90
2019-01-21T01:04:42.389Z,2.93
2019-01-21T01:07:09.827Z,3.17
2019-01-21T01:09:37.301Z,3.03
2019-01-21T01:12:04.653Z,2.90
2019-01-21T01:14:31.968Z,3.50
2019-01-21T01:16:59.265Z,3.50
2019-01-21T01:19:26.729Z,3.23
2019-01-21T01:21:53.978Z,2.70
2019-01-21T01:24:21.258Z,4.17
2019-01-21T01:26:48.683Z,3.37
2019-01-21T01:29:15.866Z,3.20
2019-01-21T01:31:43.311Z,3.10
2019-01-21T01:34:10.618Z,2.90
2019-01-21T01:36:37.955Z,3.27
2019-01-21T01:39:06.343Z,2.90
2019-01-21T01:41:33.592Z,2.70
2019-01-21T01:44:00.806Z,3.20
2019-01-21T01:46:28.020Z,3.50
2019-01-21T01:48:55.627Z,3.10
2019-01-21T01:51:22.872Z,3.60
2019-01-21T01:53:50.146Z,2.60
2019-01-21T01:56:17.385Z,2.60
2019-01-21T01:58:44.608Z,2.87
2019-01-21T02:01:11.844Z,2.90
2019-01-21T02:03:39.420Z,2.97
2019-01-21T02:06:06.647Z,3.10
2019-01-21T02:08:33.838Z,3.00
2019-01-21T02:11:01.108Z,2.97
2019-01-21T02:13:28.351Z,2.93
2019-01-21T02:15:55.672Z,2.83
2019-01-21T02:18:23.375Z,3.13
2019-01-21T02:20:50.541Z,3.23
2019-01-21T02:23:17.773Z,3.20
2019-01-21T02:25:50.145Z,3.47
2019-01-21T02:28:37.934Z,3.30
2019-01-21T02:31:53.276Z,3.20
2019-01-21T02:34:38.244Z,2.87
2019-01-21T02:37:53.209Z,2.83
2019-01-21T02:40:51.694Z,3.00
2019-01-21T02:44:15.833Z,3.10
2019-01-21T02:47:27.682Z,2.70
2019-01-21T02:50:19.922Z,3.03
2019-01-21T02:53:12.478Z,3.40
2019-01-21T02:56:07.657Z,2.70
2019-01-21T02:58:45.085Z,2.90
2019-01-21T03:01:37.380Z,2.87
2019-01-21T03:04:22.465Z,3.47
2019-01-21T03:07:15.034Z,3.13
2019-01-21T03:10:00.051Z,2.80
2019-01-21T03:12:40.469Z,3.20
2019-01-21T03:15:14.809Z,3.10
2019-01-21T03:18:16.142Z,2.53
2019-01-21T03:21:08.548Z,3.70
2019-01-21T03:24:00.837Z,2.67
2019-01-21T03:26:55.959Z,2.83
2019-01-21T03:29:45.213Z,2.83
2019-01-21T03:32:30.386Z,3.10
2019-01-21T03:35:05.703Z,2.50
2019-01-21T03:37:50.767Z,2.90
2019-01-21T03:40:37.021Z,3.20
2019-01-21T03:43:23.320Z,2.80
2019-01-21T03:46:18.973Z,3.00
2019-01-21T03:48:51.749Z,2.50
2019-01-21T03:51:38.294Z,3.17
2019-01-21T03:54:15.716Z,2.90
2019-01-21T03:57:20.067Z,3.23
2019-01-21T03:59:56.741Z,3.17
2019-01-21T04:02:49.084Z,2.70
2019-01-21T04:05:18.967Z,3.20
2019-01-21T04:07:50.588Z,3.60
2019-01-21T04:10:33.444Z,2.70
2019-01-21T04:13:35.256Z,3.40
2019-01-21T04:16:09.575Z,3.00
2019-01-21T04:18:42.530Z,2.50
2019-01-21T04:21:43.904Z,2.50
2019-01-21T04:24:36.324Z,3.60
2019-01-21T04:27:09.647Z,3.80
2019-01-21T04:29:49.222Z,3.10
2019-01-21T04:32:22.472Z,3.43
2019-01-21T04:35:14.914Z,3.00
2019-01-21T04:38:07.427Z,2.67
2019-01-21T04:40:37.806Z,3.50
2019-01-21T04:43:11.056Z,2.77
2019-01-21T04:45:44.810Z,3.00
2019-01-21T04:48:40.189Z,3.10
2019-01-21T04:51:29.185Z,3.00
2019-01-21T04:54:14.308Z,2.90
2019-01-21T04:57:09.880Z,3.23
2019-01-21T05:00:11.542Z,3.17
2019-01-21T05:03:07.110Z,3.00
2019-01-21T05:06:02.493Z,2.87
2019-01-21T05:08:47.554Z,3.27
2019-01-21T05:11:31.551Z,3.13
2019-01-21T05:14:10.710Z,2.97
2019-01-21T05:16:44.696Z,3.17
2019-01-21T05:19:33.711Z,2.90
2019-01-21T05:22:22.946Z,2.80
2019-01-21T05:25:02.920Z,2.57
2019-01-21T05:27:39.573Z,3.13
2019-01-21T05:30:25.846Z,2.73
2019-01-21T05:33:11.019Z,3.07
2019-01-21T05:36:10.120Z,3.10
2019-01-21T05:38:59.281Z,3.67
2019-01-21T05:41:51.435Z,2.97
2019-01-21T05:44:36.518Z,2.93
2019-01-21T05:47:28.832Z,3.17
2019-01-21T05:50:13.978Z,2.50
2019-01-21T05:53:18.714Z,2.80
2019-01-21T05:56:00.208Z,2.83
2019-01-21T05:58:49.639Z,3.00
2019-01-21T06:01:36.382Z,3.00
2019-01-21T06:04:06.038Z,3.63
2019-01-21T06:07:01.523Z,3.17
2019-01-21T06:09:47.841Z,3.03
2019-01-21T06:12:40.398Z,3.57
2019-01-21T06:15:29.169Z,3.17
2019-01-21T06:18:21.373Z,3.53
2019-01-21T06:21:10.976Z,3.60
2019-01-21T06:23:59.963Z,3.70
2019-01-21T06:26:35.982Z,3.17
2019-01-21T06:29:28.346Z,3.50
2019-01-21T06:32:13.440Z,3.70
2019-01-21T06:34:53.263Z,3.60
2019-01-21T06:37:27.319Z,4.13
2019-01-21T06:40:29.080Z,5.20
2019-01-21T06:43:14.962Z,4.47
2019-01-21T06:46:06.971Z,4.63
2019-01-21T06:48:56.017Z,4.50
2019-01-21T06:51:41.206Z,4.40
2019-01-21T06:54:36.848Z,4.50
2019-01-21T06:57:41.202Z,4.50
2019-01-21T07:00:20.074Z,4.33
2019-01-21T07:03:05.027Z,4.63
2019-01-21T07:05:49.920Z,5.10
2019-01-21T07:08:22.993Z,3.73
2019-01-21T07:11:12.250Z,4.23
2019-01-21T07:13:58.553Z,4.80
2019-01-21T07:17:03.010Z,4.60
2019-01-21T07:19:46.221Z,4.70
2019-01-21T07:22:32.342Z,4.80
2019-01-21T07:25:37.097Z,4.63
2019-01-21T07:28:13.477Z,5.67
2019-01-21T07:30:47.885Z,4.77
2019-01-21T07:33:37.321Z,5.63
2019-01-21T07:36:14.288Z,5.40
2019-01-21T07:38:47.932Z,5.50
2019-01-21T07:41:33.685Z,6.00
2019-01-21T07:44:20.368Z,5.07
2019-01-21T07:47:05.347Z,5.60
2019-01-21T07:49:50.202Z,6.03
2019-01-21T07:52:31.233Z,4.97
2019-01-21T07:55:06.310Z,4.93
2019-01-21T07:57:46.050Z,5.60
2019-01-21T08:00:24.067Z,5.20
2019-01-21T08:03:01.998Z,5.47
2019-01-21T08:05:41.048Z,5.20
2019-01-21T08:08:29.445Z,4.87
2019-01-21T08:11:17.405Z,6.27
2019-01-21T08:14:15.776Z,5.13
2019-01-21T08:17:05.332Z,5.20
2019-01-21T08:19:46.798Z,5.07
2019-01-21T08:22:22.664Z,5.70
2019-01-21T08:25:08.904Z,5.30
2019-01-21T08:28:07.311Z,5.47
2019-01-21T08:30:52.474Z,5.70
2019-01-21T08:33:37.596Z,5.50
2019-01-21T08:36:22.759Z,5.73
2019-01-21T08:39:11.974Z,5.03
2019-01-21T08:41:51.734Z,6.00
2019-01-21T08:44:44.004Z,5.33
2019-01-21T08:47:23.632Z,5.63
2019-01-21T08:50:08.982Z,6.47
2019-01-21T08:52:42.992Z,5.90
2019-01-21T08:55:29.264Z,4.93
2019-01-21T08:58:18.296Z,6.10
2019-01-21T09:01:10.416Z,5.27
2019-01-21T09:04:11.803Z,5.93
2019-01-21T09:06:42.453Z,5.47
2019-01-21T09:09:21.186Z,5.00
2019-01-21T09:12:07.406Z,5.30
2019-01-21T09:14:55.324Z,5.40
2019-01-21T09:17:44.628Z,5.50
2019-01-21T09:20:22.533Z,5.50
2019-01-21T09:23:03.747Z,6.30
2019-01-21T09:25:37.276Z,6.03
2019-01-21T09:28:26.400Z,6.30
2019-01-21T09:31:07.706Z,5.37
2019-01-21T09:33:56.810Z,5.70
2019-01-21T09:36:42.150Z,6.10
2019-01-21T09:39:13.340Z,5.87
2019-01-21T09:41:46.767Z,5.40
2019-01-21T09:44:36.217Z,4.90
2019-01-21T09:47:02.555Z,5.20
2019-01-21T09:49:30.327Z,4.93
2019-01-21T09:52:11.500Z,6.00
2019-01-21T09:54:38.954Z,5.03
2019-01-21T09:57:06.404Z,5.33
2019-01-21T09:59:33.224Z,5.93
2019-01-21T10:02:00.407Z,5.33
2019-01-21T10:04:33.869Z,5.20
2019-01-21T10:07:18.738Z,5.73
2019-01-21T10:09:55.829Z,5.77
2019-01-21T10:12:48.250Z,5.57
2019-01-21T10:15:18.334Z,5.20
2019-01-21T10:18:16.991Z,5.77
2019-01-21T10:21:01.955Z,5.73
2019-01-21T10:24:03.567Z,6.03
2019-01-21T10:26:48.765Z,6.20
2019-01-21T10:29:22.177Z,6.27
2019-01-21T10:32:09.771Z,6.40
2019-01-21T10:35:02.955Z,5.50
2019-01-21T10:37:44.918Z,5.73
2019-01-21T10:40:33.822Z,6.00
2019-01-21T10:43:08.328Z,6.50
2019-01-21T10:46:07.165Z,5.93
2019-01-21T10:49:02.302Z,5.50
2019-01-21T10:51:51.591Z,5.43
2019-01-21T10:54:26.041Z,6.10
2019-01-21T10:57:18.393Z,5.00
2019-01-21T11:00:13.867Z,5.73
2019-01-21T11:03:03.145Z,6.03
2019-01-21T11:05:38.198Z,5.13
2019-01-21T11:08:19.263Z,5.80
2019-01-21T11:11:07.762Z,5.93
2019-01-21T11:14:12.590Z,5.60
2019-01-21T11:17:08.087Z,6.53
2019-01-21T11:19:46.129Z,5.83
2019-01-21T11:22:34.786Z,7.83
2019-01-21T11:25:19.914Z,9.43
2019-01-21T11:28:04.932Z,9.50
2019-01-21T11:31:03.278Z,9.80
2019-01-21T11:33:45.574Z,9.10
2019-01-21T11:36:21.497Z,7.97
2019-01-21T11:39:19.925Z,8.77
2019-01-21T11:42:15.263Z,8.70
2019-01-21T11:44:55.661Z,8.57
2019-01-21T11:47:40.866Z,8.73
2019-01-21T11:50:31.524Z,9.87
2019-01-21T11:53:23.675Z,9.50
2019-01-21T11:55:54.144Z,8.07
2019-01-21T11:58:43.328Z,10.00
2019-01-21T12:01:29.553Z,8.73
2019-01-21T12:04:21.286Z,9.07
2019-01-21T12:07:10.289Z,8.97
2019-01-21T12:09:55.554Z,9.43
2019-01-21T12:12:31.258Z,9.37
2019-01-21T12:15:06.656Z,9.07
2019-01-21T12:17:51.740Z,9.00
2019-01-21T12:20:38.002Z,8.77
2019-01-21T12:23:17.791Z,8.60
2019-01-21T12:25:47.939Z,8.93
2019-01-21T12:28:20.793Z,8.20
2019-01-21T12:31:07.047Z,8.40
2019-01-21T12:34:02.420Z,7.97
2019-01-21T12:36:34.667Z,7.83
2019-01-21T12:39:30.054Z,8.30
2019-01-21T12:42:28.559Z,8.20
2019-01-21T12:45:21.090Z,7.60
2019-01-21T12:48:13.644Z,7.73
2019-01-21T12:50:58.896Z,8.50
2019-01-21T12:53:30.374Z,7.60
2019-01-21T12:56:20.039Z,7.90
2019-01-21T12:58:53.691Z,8.23
2019-01-21T13:01:39.930Z,8.53
2019-01-21T13:04:15.931Z,7.50
2019-01-21T13:06:45.433Z,7.60
2019-01-21T13:09:31.707Z,7.37
2019-01-21T13:12:23.800Z,7.53
2019-01-21T13:26:47.555Z,7.90
2019-01-21T13:29:22.881Z,7.47
2019-01-21T13:32:12.287Z,7.07
2019-01-21T13:34:58.467Z,7.67
2019-01-21T13:37:44.933Z,7.90
2019-01-21T13:40:33.959Z,7.47
2019-01-21T13:43:23.463Z,6.57
2019-01-21T13:46:18.717Z,6.60
2019-01-21T13:49:07.690Z,7.07
2019-01-21T13:52:09.375Z,7.43
2019-01-21T13:54:39.339Z,6.57
2019-01-21T13:57:37.483Z,7.50
2019-01-21T14:00:13.772Z,7.30
2019-01-21T14:02:46.137Z,6.97
2019-01-21T14:05:32.437Z,7.90
2019-01-21T14:08:24.698Z,7.07
2019-01-21T14:11:10.991Z,6.93
2019-01-21T14:13:49.519Z,7.17
2019-01-21T14:16:25.528Z,8.77
2019-01-21T14:19:02.009Z,7.13
2019-01-21T14:21:51.322Z,7.23
2019-01-21T14:24:25.787Z,7.40
2019-01-21T14:27:02.714Z,7.30
2019-01-21T14:29:32.707Z,6.53
2019-01-21T14:32:21.758Z,7.17
2019-01-21T14:35:07.042Z,7.57
2019-01-21T14:37:48.332Z,6.20
2019-01-21T14:40:24.363Z,6.27
2019-01-21T14:43:13.606Z,6.70
2019-01-21T14:45:44.787Z,5.80
2019-01-21T14:48:40.139Z,6.30
2019-01-21T14:51:34.898Z,6.50
2019-01-21T14:54:21.171Z,5.80
2019-01-21T14:57:05.054Z,7.10
2019-01-21T14:59:36.469Z,5.97
2019-01-21T15:02:22.748Z,6.83
2019-01-21T15:05:21.632Z,6.40
2019-01-21T15:08:06.700Z,5.70
2019-01-21T15:10:52.729Z,5.90
2019-01-21T15:13:42.097Z,5.40
2019-01-21T15:16:21.562Z,5.87
2019-01-21T15:18:54.435Z,6.10
2019-01-21T15:21:43.410Z,6.63
2019-01-21T15:24:15.397Z,6.67
2019-01-21T15:27:13.644Z,6.13
2019-01-21T15:29:45.877Z,6.50
2019-01-21T15:32:18.582Z,6.20
2019-01-21T15:34:57.396Z,5.50
2019-01-21T15:37:55.798Z,5.27
2019-01-21T15:40:32.938Z,6.37
2019-01-21T15:43:04.605Z,6.60
2019-01-21T15:45:39.424Z,6.10
2019-01-21T15:48:28.310Z,6.27
2019-01-21T15:51:04.843Z,5.20
2019-01-21T15:53:53.058Z,6.37
2019-01-21T15:56:30.240Z,5.53
2019-01-21T15:59:08.138Z,5.33
2019-01-21T16:02:03.503Z,6.57
2019-01-21T16:04:34.550Z,5.63
2019-01-21T16:07:21.076Z,5.20
2019-01-21T16:10:13.582Z,5.70
2019-01-21T16:13:06.234Z,5.17
2019-01-21T16:15:52.487Z,5.47
2019-01-21T16:18:38.748Z,5.50
2019-01-21T16:21:19.809Z,5.20
2019-01-21T16:24:08.815Z,5.70
2019-01-21T16:26:50.272Z,5.60
2019-01-21T16:29:54.758Z,5.23
2019-01-21T16:32:32.530Z,5.03
2019-01-21T16:35:21.603Z,5.40
2019-01-21T16:38:19.898Z,5.53
2019-01-21T16:41:04.769Z,5.87
2019-01-21T16:43:31.607Z,5.77
2019-01-21T16:45:58.425Z,5.47
2019-01-21T16:48:25.217Z,5.10
2019-01-21T16:50:52.030Z,5.00
2019-01-21T16:53:18.835Z,5.40
2019-01-21T16:55:45.680Z,4.73
2019-01-21T16:58:12.464Z,5.90
2019-01-21T17:00:39.234Z,5.33
2019-01-21T17:03:06.272Z,4.97
2019-01-21T17:05:33.039Z,4.77
2019-01-21T17:08:00.763Z,5.30
2019-01-21T17:10:27.822Z,5.27
2019-01-21T17:12:54.696Z,5.10
2019-01-21T17:15:21.599Z,6.10
2019-01-21T17:17:48.450Z,5.50
2019-01-21T17:20:16.782Z,5.07
2019-01-21T17:22:43.761Z,5.00
2019-01-21T17:25:10.658Z,4.87
2019-01-21T17:27:37.546Z,4.23
2019-01-21T17:30:05.764Z,5.10
2019-01-21T17:32:32.665Z,5.20
2019-01-21T17:34:59.625Z,6.13
2019-01-21T17:37:26.495Z,4.90
2019-01-21T17:39:53.264Z,5.53
2019-01-21T17:42:20.079Z,4.70
2019-01-21T17:44:46.910Z,4.87
2019-01-21T17:47:13.754Z,4.53
2019-01-21T17:49:40.566Z,4.77
2019-01-21T17:52:07.504Z,4.70
2019-01-21T17:54:35.295Z,5.30
2019-01-21T17:57:02.936Z,5.13
2019-01-21T17:59:29.871Z,5.23
2019-01-21T18:01:56.719Z,4.40
2019-01-21T18:04:23.503Z,5.07
2019-01-21T18:06:50.450Z,5.70
2019-01-21T18:09:17.277Z,5.23
2019-01-21T18:11:44.161Z,4.57
2019-01-21T18:14:10.962Z,5.60
2019-01-21T18:16:37.863Z,4.63
2019-01-21T18:19:04.648Z,4.97
2019-01-21T18:21:31.408Z,4.83
2019-01-21T18:23:58.214Z,4.53
2019-01-21T18:26:25.047Z,4.97
2019-01-21T18:28:51.827Z,4.67
2019-01-21T18:31:18.703Z,4.10
2019-01-21T18:33:45.518Z,4.37
2019-01-21T18:36:12.301Z,5.20
2019-01-21T18:38:39.082Z,5.17
2019-01-21T18:41:05.910Z,4.63
2019-01-21T18:43:32.735Z,5.07
2019-01-21T18:45:59.571Z,5.10
2019-01-21T18:48:26.362Z,4.87
2019-01-21T18:50:53.154Z,4.67
2019-01-21T18:53:19.957Z,4.27
2019-01-21T18:55:46.768Z,4.47
2019-01-21T18:58:13.572Z,4.73
2019-01-21T19:00:40.443Z,5.23
2019-01-21T19:03:07.286Z,4.13
2019-01-21T19:05:34.110Z,4.07
2019-01-21T19:08:00.939Z,4.37
2019-01-21T19:10:27.772Z,4.67
2019-01-21T19:12:54.559Z,4.73
2019-01-21T19:15:22.652Z,3.90
2019-01-21T19:17:49.460Z,4.33
2019-01-21T19:20:16.252Z,4.43
2019-01-21T19:22:43.111Z,4.27
2019-01-21T19:25:09.941Z,4.77
2019-01-21T19:27:36.693Z,4.83
2019-01-21T19:30:04.232Z,5.33
2019-01-21T19:32:31.120Z,4.10
2019-01-21T19:34:58.315Z,3.93
2019-01-21T19:37:25.186Z,3.93
2019-01-21T19:39:52.138Z,4.07
2019-01-21T19:42:18.941Z,4.30
2019-01-21T19:44:45.753Z,4.20
2019-01-21T19:47:12.593Z,4.23
2019-01-21T19:49:39.468Z,4.93
2019-01-21T19:52:06.316Z,4.03
2019-01-21T19:54:33.371Z,4.50
2019-01-21T19:57:00.173Z,4.30
2019-01-21T19:59:27.964Z,4.63
2019-01-21T20:01:54.807Z,4.67
2019-01-21T20:04:21.613Z,4.80
2019-01-21T20:06:48.407Z,4.37
2019-01-21T20:09:15.201Z,4.37
2019-01-21T20:11:42.117Z,3.77
2019-01-21T20:14:08.915Z,4.00
2019-01-21T20:16:35.684Z,4.07
2019-01-21T20:19:02.479Z,4.30
2019-01-21T20:21:29.320Z,4.30
2019-01-21T20:23:56.128Z,3.60
2019-01-21T20:26:23.064Z,4.17
2019-01-21T20:28:50.011Z,4.73
2019-01-21T20:31:16.777Z,4.60
2019-01-21T20:33:43.656Z,3.90
2019-01-21T20:36:10.449Z,4.13
2019-01-21T20:38:37.287Z,3.80
2019-01-21T20:41:04.209Z,4.40
2019-01-21T20:43:30.983Z,4.17
2019-01-21T20:45:57.768Z,4.33
2019-01-21T20:48:24.609Z,4.13
2019-01-21T20:50:51.529Z,3.73
2019-01-21T20:53:18.343Z,4.60
2019-01-21T20:55:45.147Z,4.27
2019-01-21T20:58:12.003Z,4.10
2019-01-21T21:00:38.794Z,4.10
2019-01-21T21:03:05.607Z,4.90
2019-01-21T21:05:32.561Z,4.43
2019-01-21T21:07:59.447Z,4.13
2019-01-21T21:10:26.339Z,4.23
2019-01-21T21:12:53.536Z,4.03
2019-01-21T21:15:21.745Z,4.40
2019-01-21T21:17:48.875Z,4.40
2019-01-21T21:20:15.885Z,4.27
2019-01-21T21:22:42.779Z,4.63
2019-01-21T21:25:10.487Z,4.00
2019-01-21T21:27:37.317Z,3.90
2019-01-21T21:30:05.437Z,4.30
2019-01-21T21:32:32.320Z,3.93
2019-01-21T21:34:59.493Z,3.50
2019-01-21T21:37:26.519Z,3.90
2019-01-21T21:39:54.415Z,3.57
2019-01-21T21:42:21.435Z,3.90
2019-01-21T21:44:48.386Z,4.57
2019-01-21T21:47:15.318Z,3.93
2019-01-21T21:49:42.210Z,3.80
2019-01-21T21:52:09.092Z,4.13
2019-01-21T21:54:36.343Z,4.50
2019-01-21T21:57:03.942Z,3.90
2019-01-21T21:59:30.849Z,4.13
2019-01-21T22:02:00.770Z,3.57
2019-01-21T22:04:27.667Z,4.37
2019-01-21T22:06:54.532Z,4.03
2019-01-21T22:09:21.879Z,4.70
2019-01-21T22:11:48.780Z,3.73
2019-01-21T22:14:15.664Z,4.70
2019-01-21T22:16:42.572Z,4.20
2019-01-21T22:19:09.463Z,4.00
2019-01-21T22:21:36.282Z,3.97
2019-01-21T22:24:03.122Z,4.40
2019-01-21T22:26:29.984Z,3.20
2019-01-21T22:28:56.775Z,3.47
2019-01-21T22:31:23.618Z,3.80
2019-01-21T22:33:50.426Z,3.87
2019-01-21T22:36:17.205Z,4.30
2019-01-21T22:38:46.372Z,3.10
2019-01-21T22:41:13.279Z,3.60
2019-01-21T22:43:41.749Z,3.90
2019-01-21T22:46:09.477Z,3.93
2019-01-21T22:48:36.469Z,3.30
2019-01-21T22:51:03.267Z,4.13
2019-01-21T22:53:30.035Z,4.17
2019-01-21T22:55:56.873Z,3.80
2019-01-21T22:58:23.658Z,3.57
2019-01-21T23:00:53.966Z,4.60
2019-01-21T23:03:20.874Z,3.90
2019-01-21T23:05:47.838Z,3.83
2019-01-21T23:08:14.766Z,4.43
2019-01-21T23:10:41.594Z,3.90
2019-01-21T23:13:08.443Z,4.47
2019-01-21T23:15:35.426Z,3.90
2019-01-21T23:18:04.317Z,3.73
2019-01-21T23:20:30.851Z,4.07
2019-01-21T23:22:57.629Z,4.53
2019-01-21T23:25:24.674Z,3.33
2019-01-21T23:27:52.579Z,4.03
2019-01-21T23:30:19.711Z,4.20
2019-01-21T23:32:46.506Z,3.90
2019-01-21T23:35:13.320Z,4.00
2019-01-21T23:37:40.163Z,3.53
2019-01-21T23:40:07.678Z,3.60
2019-01-21T23:42:34.452Z,3.70
2019-01-21T23:45:01.289Z,3.57
2019-01-21T23:47:28.060Z,3.50
2019-01-21T23:49:55.011Z,3.87
2019-01-21T23:52:21.827Z,3.90
2019-01-21T23:54:48.595Z,4.23
2019-01-21T23:57:15.415Z,4.47
2019-01-21T23:59:42.206Z,4.30
